Time;durP1;ratioP1;P1;durP2;ratioP2;P2;SDS_P1;SDS_P2;PMS_P1;PMS_P2;Temp;Humidity;BMP_temperature;BMP_pressure;BME280_temperature;BME280_humidity;BME280_pressure;Samples;Min_cycle;Max_cycle;Signal;HPM_P1;HPM_P2
2021/08/28 00:01:29;;;;;;;2.58;0.90;;;;;;;;;;4884573;29;20084;-96
2021/08/28 00:03:55;;;;;;;2.78;1.00;;;;;;;;;;4885810;29;20119;-96
2021/08/28 00:06:21;;;;;;;2.63;1.17;;;;;;;;;;4885608;29;20482;-96
2021/08/28 00:09:06;;;;;;;2.88;1.15;;;;;;;;;;4906848;29;20056;-96
2021/08/28 00:11:33;;;;;;;2.40;0.90;;;;;;;;;;4892150;29;20036;-88
2021/08/28 00:14:00;;;;;;;7.07;1.20;;;;;;;;;;4888486;29;20430;-96
2021/08/28 00:16:39;;;;;;;3.13;0.93;;;;;;;;;;4877778;29;20663;-96
2021/08/28 00:19:14;;;;;;;2.83;1.10;;;;;;;;;;4894087;29;20035;-93
2021/08/28 00:21:43;;;;;;;2.53;1.27;;;;;;;;;;4893919;29;20055;-95
2021/08/28 00:24:24;;;;;;;1.83;0.75;;;;;;;;;;4912841;29;20047;-96
2021/08/28 00:26:54;;;;;;;2.40;1.10;;;;;;;;;;4895492;29;20041;-96
2021/08/28 00:29:22;;;;;;;2.63;1.15;;;;;;;;;;4892838;29;20442;-96
2021/08/28 00:31:48;;;;;;;2.63;0.95;;;;;;;;;;4896184;29;20105;-88
2021/08/28 00:34:14;;;;;;;4.10;1.27;;;;;;;;;;4908373;29;20035;-95
2021/08/28 00:36:41;;;;;;;3.42;1.50;;;;;;;;;;4892467;29;20028;-94
2021/08/28 00:39:07;;;;;;;2.08;1.33;;;;;;;;;;4893452;29;20137;-94
2021/08/28 00:41:38;;;;;;;1.85;0.98;;;;;;;;;;4877907;29;20120;-94
2021/08/28 00:44:25;;;;;;;4.95;1.20;;;;;;;;;;4894296;29;20044;-96
2021/08/28 00:47:19;;;;;;;2.47;0.98;;;;;;;;;;4910379;29;20051;-96
2021/08/28 00:52:43;;;;;;;2.40;1.23;;;;;;;;;;4914333;29;20052;-96
2021/08/28 00:55:11;;;;;;;3.45;1.15;;;;;;;;;;4894095;29;20107;-94
2021/08/28 00:57:38;;;;;;;3.38;1.25;;;;;;;;;;4902756;29;20092;-93
2021/08/28 01:00:06;;;;;;;2.15;1.20;;;;;;;;;;4906944;29;20044;-93
2021/08/28 01:02:33;;;;;;;2.55;1.10;;;;;;;;;;4897327;29;20043;-95
2021/08/28 01:05:07;;;;;;;3.20;1.13;;;;;;;;;;4902483;29;20028;-96
2021/08/28 01:07:56;;;;;;;2.25;0.90;;;;;;;;;;4902458;29;20037;-95
2021/08/28 01:10:27;;;;;;;2.60;1.10;;;;;;;;;;4897016;29;20024;-96
2021/08/28 01:12:54;;;;;;;3.10;1.00;;;;;;;;;;4890713;29;20103;-94
2021/08/28 01:15:22;;;;;;;2.10;1.02;;;;;;;;;;4897435;29;20367;-96
2021/08/28 01:17:49;;;;;;;2.53;1.02;;;;;;;;;;4908994;29;20057;-91
2021/08/28 01:20:34;;;;;;;5.72;1.00;;;;;;;;;;4905346;29;20100;-93
2021/08/28 01:23:01;;;;;;;1.60;1.00;;;;;;;;;;4893751;29;20033;-96
2021/08/28 01:25:28;;;;;;;2.42;1.40;;;;;;;;;;4890689;29;20423;-96
2021/08/28 01:28:02;;;;;;;1.88;1.05;;;;;;;;;;4891419;29;20057;-96
2021/08/28 01:30:28;;;;;;;2.10;1.00;;;;;;;;;;4891058;29;20045;-96
2021/08/28 01:32:54;;;;;;;2.65;1.55;;;;;;;;;;4888410;29;20025;-96
2021/08/28 01:35:22;;;;;;;3.15;1.40;;;;;;;;;;4889037;29;20033;-96
2021/08/28 01:37:49;;;;;;;2.20;1.33;;;;;;;;;;4892191;29;20033;-93
2021/08/28 01:40:16;;;;;;;2.40;1.25;;;;;;;;;;4894663;29;20060;-94
2021/08/28 01:42:56;;;;;;;2.35;1.20;;;;;;;;;;4898208;29;20053;-94
2021/08/28 01:45:26;;;;;;;1.65;0.98;;;;;;;;;;4899196;29;20096;-96
2021/08/28 01:47:53;;;;;;;2.00;1.10;;;;;;;;;;4897177;29;20064;-96
2021/08/28 01:50:20;;;;;;;2.53;1.33;;;;;;;;;;4897799;29;20030;-95
2021/08/28 01:53:17;;;;;;;;;;;;;;;;;;;;;
2021/08/28 01:55:49;;;;;;;2.20;1.35;;;;;;;;;;4887247;29;20037;-95
2021/08/28 01:58:16;;;;;;;4.85;1.50;;;;;;;;;;4915376;23;20060;-96
2021/08/28 02:00:47;;;;;;;2.53;1.27;;;;;;;;;;4897125;29;20017;-96
2021/08/28 02:03:17;;;;;;;3.95;1.20;;;;;;;;;;5050664;23;20115;-95
2021/08/28 02:06:02;;;;;;;3.05;1.35;;;;;;;;;;4972792;28;20055;-95
2021/08/28 02:08:43;;;;;;;11.77;1.65;;;;;;;;;;4976184;29;20059;-96
2021/08/28 02:11:18;;;;;;;2.35;1.25;;;;;;;;;;4969214;29;20147;-96
2021/08/28 02:14:13;;;;;;;2.03;1.30;;;;;;;;;;4961957;23;20501;-93
2021/08/28 02:16:43;;;;;;;3.35;1.05;;;;;;;;;;4916728;29;20024;-96
2021/08/28 02:19:35;;;;;;;2.10;1.13;;;;;;;;;;4919528;29;20028;-95
2021/08/28 02:30:20;;;;;;;;;;;;;;;;;;;;;
2021/08/28 02:33:12;;;;;;;2.53;1.42;;;;;;;;;;5112543;23;20059;-95
2021/08/28 02:35:44;;;;;;;2.60;1.45;;;;;;;;;;4952838;29;20034;-91
2021/08/28 02:38:10;;;;;;;6.45;1.90;;;;;;;;;;4957774;28;20046;-90
2021/08/28 02:41:06;;;;;;;4.22;1.85;;;;;;;;;;4952084;29;20022;-92
2021/08/28 02:43:54;;;;;;;2.60;1.60;;;;;;;;;;4974610;29;20042;-93
2021/08/28 02:46:29;;;;;;;3.20;1.45;;;;;;;;;;4955813;29;20135;-95
2021/08/28 02:49:01;;;;;;;2.90;1.60;;;;;;;;;;4955980;29;20035;-94
2021/08/28 02:51:31;;;;;;;2.73;1.70;;;;;;;;;;4972413;28;20074;-88
2021/08/28 02:54:04;;;;;;;3.78;1.75;;;;;;;;;;4956398;29;20271;-95
2021/08/28 02:56:31;;;;;;;4.53;1.85;;;;;;;;;;5022342;23;20144;-96
2021/08/28 02:58:58;;;;;;;7.43;1.70;;;;;;;;;;4964018;29;20043;-96
2021/08/28 03:01:31;;;;;;;2.65;1.70;;;;;;;;;;4966694;29;20122;-95
2021/08/28 03:04:05;;;;;;;2.97;1.45;;;;;;;;;;4966410;29;20027;-96
2021/08/28 03:06:42;;;;;;;;;;;;;;;;;;;;;
2021/08/28 03:17:27;;;;;;;5.90;1.60;;;;;;;;;;5011813;23;20051;-94
2021/08/28 03:20:12;;;;;;;4.30;1.40;;;;;;;;;;5073887;23;20039;-93
2021/08/28 03:23:15;;;;;;;;;;;;;;;;;;;;;
2021/08/28 03:37:14;;;;;;;6.47;1.85;;;;;;;;;;4993773;23;15151582;-88
2021/08/28 04:46:32;;;;;;;6.88;2.25;;;;;;;;;;5963001;23;20109;-91
2021/08/28 06:21:58;;;;;;;2.70;1.73;;;;;;;;;;5320343;23;20060;-92
2021/08/28 06:24:24;;;;;;;3.03;1.80;;;;;;;;;;4903824;29;20078;-93
2021/08/28 06:26:50;;;;;;;2.80;1.75;;;;;;;;;;4903299;29;20059;-94
2021/08/28 06:29:17;;;;;;;3.92;1.88;;;;;;;;;;4905282;29;20035;-96
2021/08/28 06:31:43;;;;;;;3.65;1.92;;;;;;;;;;4916797;29;20032;-92
2021/08/28 06:34:10;;;;;;;4.13;1.90;;;;;;;;;;4911403;29;20024;-94
2021/08/28 06:36:36;;;;;;;3.80;1.67;;;;;;;;;;4907468;29;20028;-96
2021/08/28 06:39:02;;;;;;;3.05;1.60;;;;;;;;;;4903150;29;20032;-94
2021/08/28 06:41:28;;;;;;;4.00;1.80;;;;;;;;;;4903349;29;20489;-90
2021/08/28 06:43:55;;;;;;;5.50;1.42;;;;;;;;;;4902703;29;20495;-89
2021/08/28 06:46:21;;;;;;;2.30;1.42;;;;;;;;;;4920013;29;20051;-93
2021/08/28 06:48:48;;;;;;;3.38;1.55;;;;;;;;;;4902893;29;20028;-91
2021/08/28 06:51:14;;;;;;;2.50;1.70;;;;;;;;;;4902597;29;20056;-95
2021/08/28 06:53:40;;;;;;;5.18;1.98;;;;;;;;;;4902556;29;20056;-86
2021/08/28 06:56:06;;;;;;;3.53;1.67;;;;;;;;;;4902577;29;20024;-92
2021/08/28 06:58:32;;;;;;;3.38;1.75;;;;;;;;;;4902544;29;20092;-93
2021/08/28 07:00:59;;;;;;;2.88;1.38;;;;;;;;;;4902467;29;20024;-93
2021/08/28 07:03:25;;;;;;;4.38;1.67;;;;;;;;;;4902292;29;20043;-91
2021/08/28 07:05:51;;;;;;;3.42;1.73;;;;;;;;;;4903491;29;20052;-94
2021/08/28 07:08:17;;;;;;;4.15;1.38;;;;;;;;;;4902302;29;20036;-95
2021/08/28 07:10:43;;;;;;;2.80;1.10;;;;;;;;;;4902271;29;20032;-93
2021/08/28 07:13:10;;;;;;;3.58;1.00;;;;;;;;;;4902159;29;20500;-95
2021/08/28 07:15:36;;;;;;;3.33;1.08;;;;;;;;;;4902008;29;20051;-93
2021/08/28 07:18:02;;;;;;;3.17;1.10;;;;;;;;;;4902834;29;20040;-93
2021/08/28 07:20:28;;;;;;;3.33;0.98;;;;;;;;;;4902246;29;20139;-94
2021/08/28 07:22:54;;;;;;;2.20;1.15;;;;;;;;;;4920977;29;20062;-90
2021/08/28 07:25:21;;;;;;;3.00;1.00;;;;;;;;;;4936214;29;20023;-96
2021/08/28 07:27:47;;;;;;;4.70;1.15;;;;;;;;;;4937335;29;20113;-94
2021/08/28 07:30:14;;;;;;;3.35;1.30;;;;;;;;;;4936953;29;20030;-95
2021/08/28 07:32:40;;;;;;;8.35;1.35;;;;;;;;;;4939242;29;20060;-94
2021/08/28 07:35:06;;;;;;;2.42;0.88;;;;;;;;;;4943953;29;20028;-96
2021/08/28 07:37:33;;;;;;;6.05;1.08;;;;;;;;;;4936409;29;20042;-95
2021/08/28 07:39:59;;;;;;;4.03;1.00;;;;;;;;;;4936527;29;20114;-93
2021/08/28 07:42:25;;;;;;;3.95;0.85;;;;;;;;;;4937193;29;20028;-93
2021/08/28 07:44:52;;;;;;;3.33;0.93;;;;;;;;;;4936413;29;20466;-91
2021/08/28 07:47:18;;;;;;;4.22;0.93;;;;;;;;;;4936906;29;20175;-93
2021/08/28 07:49:44;;;;;;;3.30;0.80;;;;;;;;;;4936347;29;20055;-92
2021/08/28 07:52:10;;;;;;;3.03;0.75;;;;;;;;;;4936308;29;20453;-93
2021/08/28 07:54:36;;;;;;;4.00;0.88;;;;;;;;;;4936307;29;20030;-93
2021/08/28 07:57:05;;;;;;;3.70;0.77;;;;;;;;;;4936918;29;20027;-94
2021/08/28 07:59:31;;;;;;;1.98;0.57;;;;;;;;;;4907404;29;20122;-93
2021/08/28 08:01:58;;;;;;;1.88;0.70;;;;;;;;;;4937685;29;20041;-94
2021/08/28 08:04:24;;;;;;;2.50;0.60;;;;;;;;;;4937078;29;20091;-95
2021/08/28 08:06:50;;;;;;;3.15;0.70;;;;;;;;;;4937056;29;20209;-94
2021/08/28 08:09:17;;;;;;;0.98;0.50;;;;;;;;;;4936772;29;20472;-94
2021/08/28 08:11:43;;;;;;;2.08;0.70;;;;;;;;;;4937020;29;20034;-95
2021/08/28 08:14:11;;;;;;;2.63;0.60;;;;;;;;;;4936625;29;20035;-95
2021/08/28 08:16:37;;;;;;;1.88;0.60;;;;;;;;;;4938900;29;20476;-94
2021/08/28 08:19:04;;;;;;;1.52;0.70;;;;;;;;;;4936579;29;20031;-94
2021/08/28 08:21:31;;;;;;;2.60;0.98;;;;;;;;;;4936036;29;20083;-95
2021/08/28 08:23:57;;;;;;;3.00;0.70;;;;;;;;;;4936323;29;20210;-94
2021/08/28 08:26:24;;;;;;;1.30;0.50;;;;;;;;;;4939187;29;20032;-93
2021/08/28 08:28:51;;;;;;;1.88;0.60;;;;;;;;;;4954675;29;20056;-92
2021/08/28 08:31:17;;;;;;;2.47;0.70;;;;;;;;;;4943388;29;20046;-94
2021/08/28 08:33:44;;;;;;;1.98;0.70;;;;;;;;;;4935996;29;20078;-95
2021/08/28 08:36:10;;;;;;;4.10;0.70;;;;;;;;;;4917654;29;20086;-95
2021/08/28 08:38:37;;;;;;;1.80;0.77;;;;;;;;;;4938992;29;20111;-95
2021/08/28 08:41:03;;;;;;;4.40;0.63;;;;;;;;;;4939652;29;20027;-96
2021/08/28 08:43:30;;;;;;;1.80;0.77;;;;;;;;;;4939565;29;20039;-94
2021/08/28 08:45:56;;;;;;;1.50;0.50;;;;;;;;;;4939234;29;20047;-95
2021/08/28 08:48:23;;;;;;;2.33;1.05;;;;;;;;;;4939521;29;20036;-95
2021/08/28 08:50:49;;;;;;;2.25;1.08;;;;;;;;;;4946783;29;20052;-94
2021/08/28 08:53:17;;;;;;;3.47;1.10;;;;;;;;;;4949302;29;20033;-96
2021/08/28 08:55:43;;;;;;;5.55;1.30;;;;;;;;;;4924856;29;20066;-85
2021/08/28 09:00:45;;;;;;;2.58;0.90;;;;;;;;;;5185854;23;20055;-93
2021/08/28 09:03:12;;;;;;;4.75;1.15;;;;;;;;;;4962577;29;20082;-92
2021/08/28 09:05:41;;;;;;;2.35;1.02;;;;;;;;;;4962102;29;20538;-92
2021/08/28 09:08:07;;;;;;;3.42;1.00;;;;;;;;;;4960434;29;20081;-91
2021/08/28 09:10:33;;;;;;;2.35;0.95;;;;;;;;;;4960600;29;20110;-91
2021/08/28 09:13:16;;;;;;;3.10;0.93;;;;;;;;;;4943346;29;20035;-92
2021/08/28 09:15:43;;;;;;;5.20;1.77;;;;;;;;;;4959230;29;20031;-92
2021/08/28 09:18:10;;;;;;;1.85;0.90;;;;;;;;;;4958487;29;20100;-94
2021/08/28 09:20:36;;;;;;;2.63;0.90;;;;;;;;;;4958541;29;20166;-91
2021/08/28 09:23:12;;;;;;;2.30;0.90;;;;;;;;;;4958590;29;20488;-94
2021/08/28 09:25:39;;;;;;;1.98;1.00;;;;;;;;;;4959764;29;20031;-92
2021/08/28 09:28:06;;;;;;;2.10;1.10;;;;;;;;;;4958109;29;20499;-92
2021/08/28 09:30:40;;;;;;;4.30;1.20;;;;;;;;;;4958341;29;20027;-94
2021/08/28 09:33:06;;;;;;;2.45;0.85;;;;;;;;;;4958266;29;20038;-92
2021/08/28 09:35:33;;;;;;;2.13;1.10;;;;;;;;;;4958316;29;20114;-94
2021/08/28 09:38:01;;;;;;;1.88;0.90;;;;;;;;;;4959635;29;20036;-94
2021/08/28 09:40:37;;;;;;;5.70;1.30;;;;;;;;;;4958129;29;20051;-92
2021/08/28 09:43:05;;;;;;;2.35;1.20;;;;;;;;;;4957713;29;20038;-93
2021/08/28 09:45:31;;;;;;;2.40;1.40;;;;;;;;;;4957608;29;20027;-93
2021/08/28 09:47:58;;;;;;;3.10;1.02;;;;;;;;;;4957881;29;20035;-93
2021/08/28 09:50:25;;;;;;;2.22;1.30;;;;;;;;;;4956579;28;20031;-93
2021/08/28 09:52:51;;;;;;;3.70;1.20;;;;;;;;;;4957634;29;20075;-95
2021/08/28 09:55:20;;;;;;;2.22;1.27;;;;;;;;;;4957494;29;20027;-95
2021/08/28 09:57:49;;;;;;;1.85;0.93;;;;;;;;;;4957338;29;20126;-94
2021/08/28 10:00:15;;;;;;;2.38;1.20;;;;;;;;;;4957315;29;20043;-94
2021/08/28 10:02:54;;;;;;;3.05;1.20;;;;;;;;;;4957573;29;20039;-93
2021/08/28 10:05:20;;;;;;;7.45;1.50;;;;;;;;;;4957525;29;20019;-93
2021/08/28 10:07:47;;;;;;;3.08;1.20;;;;;;;;;;4957424;29;20062;-95
2021/08/28 10:10:13;;;;;;;2.63;1.02;;;;;;;;;;4957190;29;20044;-95
2021/08/28 10:12:40;;;;;;;2.70;1.40;;;;;;;;;;4957375;29;20034;-94
2021/08/28 10:15:08;;;;;;;12.60;1.70;;;;;;;;;;4957484;29;20050;-95
2021/08/28 10:17:34;;;;;;;4.30;1.70;;;;;;;;;;4957032;29;20038;-95
2021/08/28 10:20:02;;;;;;;9.02;3.45;;;;;;;;;;4957061;29;20035;-94
2021/08/28 10:22:30;;;;;;;5.53;1.90;;;;;;;;;;4964633;29;20050;-93
2021/08/28 10:24:57;;;;;;;3.53;1.98;;;;;;;;;;4962029;29;20081;-95
2021/08/28 10:27:28;;;;;;;5.55;1.40;;;;;;;;;;4956988;29;20105;-95
2021/08/28 10:29:54;;;;;;;6.28;1.60;;;;;;;;;;4956802;29;20085;-95
2021/08/28 10:32:21;;;;;;;2.75;1.33;;;;;;;;;;4956762;29;20031;-95
2021/08/28 10:34:51;;;;;;;3.85;1.30;;;;;;;;;;4956721;29;20027;-96
2021/08/28 10:37:17;;;;;;;2.53;1.30;;;;;;;;;;4956790;29;20114;-94
2021/08/28 10:39:44;;;;;;;3.15;1.50;;;;;;;;;;4924936;29;20083;-95
2021/08/28 10:42:12;;;;;;;3.90;1.40;;;;;;;;;;4956630;29;20550;-94
2021/08/28 10:44:38;;;;;;;5.35;1.80;;;;;;;;;;4956732;29;20031;-94
2021/08/28 10:47:15;;;;;;;3.97;1.65;;;;;;;;;;4956575;29;20035;-96
2021/08/28 10:49:44;;;;;;;2.75;1.58;;;;;;;;;;4956566;29;20396;-94
2021/08/28 10:52:24;;;;;;;3.75;1.52;;;;;;;;;;4956509;29;20039;-96
2021/08/28 10:54:57;;;;;;;8.55;1.80;;;;;;;;;;4956465;29;20031;-94
2021/08/28 10:57:30;;;;;;;2.83;1.40;;;;;;;;;;4956379;29;20054;-95
2021/08/28 11:00:07;;;;;;;3.17;1.50;;;;;;;;;;4956269;28;20043;-93
2021/08/28 11:02:52;;;;;;;3.25;1.70;;;;;;;;;;4956633;29;20035;-96
2021/08/28 11:05:22;;;;;;;4.93;1.90;;;;;;;;;;4958133;29;20539;-93
2021/08/28 11:07:48;;;;;;;3.80;1.58;;;;;;;;;;4956895;29;20122;-92
2021/08/28 11:10:27;;;;;;;2.10;1.35;;;;;;;;;;4957782;29;20023;-92
2021/08/28 11:13:03;;;;;;;2.38;1.25;;;;;;;;;;4959042;28;20041;-93
2021/08/28 11:15:29;;;;;;;2.35;0.93;;;;;;;;;;4961042;29;20015;-91
2021/08/28 11:18:01;;;;;;;1.50;0.70;;;;;;;;;;4959556;29;20027;-92
2021/08/28 11:20:38;;;;;;;2.38;0.95;;;;;;;;;;4956394;29;20034;-94
2021/08/28 11:23:06;;;;;;;1.58;0.45;;;;;;;;;;4955974;29;20503;-95
2021/08/28 11:25:33;;;;;;;1.80;0.90;;;;;;;;;;4956263;29;20027;-95
2021/08/28 11:27:59;;;;;;;1.38;0.60;;;;;;;;;;4956014;29;20122;-93
2021/08/28 11:30:44;;;;;;;5.22;1.00;;;;;;;;;;4956972;29;20049;-94
2021/08/28 11:33:12;;;;;;;2.95;0.50;;;;;;;;;;4955685;29;20023;-94
2021/08/28 11:35:41;;;;;;;2.55;0.80;;;;;;;;;;4956127;29;20042;-94
2021/08/28 11:38:08;;;;;;;1.08;0.60;;;;;;;;;;4955776;29;20024;-94
2021/08/28 11:40:36;;;;;;;1.83;0.75;;;;;;;;;;4955497;29;20031;-95
2021/08/28 11:43:03;;;;;;;1.95;0.88;;;;;;;;;;4955574;29;20073;-96
2021/08/28 11:45:33;;;;;;;2.42;1.30;;;;;;;;;;4955598;29;20101;-92
2021/08/28 11:48:00;;;;;;;1.75;0.75;;;;;;;;;;4955684;29;20035;-94
2021/08/28 11:50:30;;;;;;;5.72;0.70;;;;;;;;;;4956073;29;20023;-95
2021/08/28 11:52:56;;;;;;;2.20;1.20;;;;;;;;;;4955341;29;20039;-96
2021/08/28 11:55:23;;;;;;;2.17;0.80;;;;;;;;;;4955617;29;20027;-96
2021/08/28 11:57:59;;;;;;;1.42;0.70;;;;;;;;;;4955682;29;20042;-95
2021/08/28 12:00:29;;;;;;;1.88;0.88;;;;;;;;;;4956019;29;20066;-95
2021/08/28 12:02:57;;;;;;;2.00;0.65;;;;;;;;;;4956013;29;20027;-94
2021/08/28 12:05:24;;;;;;;1.70;0.80;;;;;;;;;;4955575;29;20481;-95
2021/08/28 12:07:54;;;;;;;1.90;0.95;;;;;;;;;;4955147;29;20058;-92
2021/08/28 12:10:23;;;;;;;3.60;0.70;;;;;;;;;;4962373;29;20034;-94
2021/08/28 12:12:56;;;;;;;1.92;0.82;;;;;;;;;;4961244;29;20106;-93
2021/08/28 12:15:23;;;;;;;3.92;0.82;;;;;;;;;;4941289;29;20035;-93
2021/08/28 12:17:50;;;;;;;2.30;0.80;;;;;;;;;;4955814;29;20031;-94
2021/08/28 12:20:23;;;;;;;2.42;0.90;;;;;;;;;;4955623;29;20070;-95
2021/08/28 12:22:50;;;;;;;2.75;0.80;;;;;;;;;;4956690;29;20023;-96
2021/08/28 12:25:16;;;;;;;1.55;0.70;;;;;;;;;;4955550;29;20035;-94
2021/08/28 12:27:46;;;;;;;1.52;0.68;;;;;;;;;;4955426;29;20122;-94
2021/08/28 12:30:13;;;;;;;1.85;0.73;;;;;;;;;;4955263;29;20222;-94
2021/08/28 12:32:39;;;;;;;5.25;0.98;;;;;;;;;;4939071;29;20027;-96
2021/08/28 12:35:06;;;;;;;2.22;0.70;;;;;;;;;;4954887;29;20031;-94
2021/08/28 12:37:32;;;;;;;1.83;0.75;;;;;;;;;;4955716;29;20078;-94
2021/08/28 12:40:01;;;;;;;1.58;0.68;;;;;;;;;;4955036;29;20458;-94
2021/08/28 12:42:30;;;;;;;1.63;0.60;;;;;;;;;;4955071;29;20027;-93
2021/08/28 12:44:58;;;;;;;3.40;0.75;;;;;;;;;;4954951;29;20139;-93
2021/08/28 12:47:26;;;;;;;1.55;0.55;;;;;;;;;;4955886;29;20036;-94
2021/08/28 12:49:55;;;;;;;12.23;0.90;;;;;;;;;;4956402;29;20043;-90
2021/08/28 12:52:21;;;;;;;1.60;0.50;;;;;;;;;;4956134;29;20050;-93
2021/08/28 12:54:54;;;;;;;1.52;0.50;;;;;;;;;;4955714;29;20038;-93
2021/08/28 12:57:25;;;;;;;0.98;0.50;;;;;;;;;;4956253;29;20122;-94
2021/08/28 12:59:53;;;;;;;1.05;0.43;;;;;;;;;;4954884;29;20554;-94
2021/08/28 13:02:19;;;;;;;1.27;0.60;;;;;;;;;;4955663;29;20067;-92
2021/08/28 13:04:46;;;;;;;2.38;0.95;;;;;;;;;;4956437;29;20044;-96
2021/08/28 13:07:22;;;;;;;0.73;0.38;;;;;;;;;;4955729;29;20396;-95
2021/08/28 13:09:53;;;;;;;0.60;0.30;;;;;;;;;;4956102;29;20133;-94
2021/08/28 13:12:19;;;;;;;1.08;0.32;;;;;;;;;;4954764;29;20480;-94
2021/08/28 13:14:49;;;;;;;2.35;0.70;;;;;;;;;;4955859;29;20055;-92
2021/08/28 13:17:26;;;;;;;0.73;0.30;;;;;;;;;;4956348;29;20039;-93
2021/08/28 13:20:06;;;;;;;0.55;0.22;;;;;;;;;;4957005;29;20114;-89
2021/08/28 13:22:35;;;;;;;2.15;0.80;;;;;;;;;;4955114;29;20039;-89
2021/08/28 13:25:02;;;;;;;1.27;0.77;;;;;;;;;;4956734;28;20019;-94
2021/08/28 13:27:31;;;;;;;1.45;0.60;;;;;;;;;;4958821;29;20135;-94
2021/08/28 13:30:13;;;;;;;2.10;1.10;;;;;;;;;;4958522;29;20106;-92
2021/08/28 13:32:51;;;;;;;1.10;0.52;;;;;;;;;;4958543;29;20038;-92
2021/08/28 13:35:17;;;;;;;2.00;0.80;;;;;;;;;;4960120;29;20457;-94
2021/08/28 13:37:43;;;;;;;1.35;0.60;;;;;;;;;;4958535;29;20034;-93
2021/08/28 13:40:09;;;;;;;1.02;0.50;;;;;;;;;;4966020;29;20031;-87
2021/08/28 13:42:36;;;;;;;3.30;0.60;;;;;;;;;;4962933;29;20030;-90
2021/08/28 13:45:02;;;;;;;1.65;0.70;;;;;;;;;;4957779;29;20034;-92
2021/08/28 13:47:30;;;;;;;3.55;0.95;;;;;;;;;;4942177;29;20125;-90
2021/08/28 13:49:56;;;;;;;2.47;0.80;;;;;;;;;;4958116;29;20053;-92
2021/08/28 13:52:22;;;;;;;2.53;0.88;;;;;;;;;;4957919;29;20047;-88
2021/08/28 13:54:48;;;;;;;1.10;0.50;;;;;;;;;;4957418;29;20070;-88
2021/08/28 13:57:14;;;;;;;2.55;0.63;;;;;;;;;;4957554;29;20138;-91
2021/08/28 13:59:41;;;;;;;2.42;0.70;;;;;;;;;;4963044;29;20055;-90
2021/08/28 14:02:07;;;;;;;1.58;0.73;;;;;;;;;;4960865;29;20057;-92
2021/08/28 14:04:33;;;;;;;2.40;1.20;;;;;;;;;;4958477;29;20444;-91
2021/08/28 14:06:59;;;;;;;2.28;1.10;;;;;;;;;;4957894;29;20035;-90
2021/08/28 14:09:25;;;;;;;2.60;0.77;;;;;;;;;;4957683;29;20028;-91
2021/08/28 14:11:51;;;;;;;2.17;0.85;;;;;;;;;;4957573;29;20035;-92
2021/08/28 14:14:18;;;;;;;2.08;0.95;;;;;;;;;;4958213;29;20027;-91
2021/08/28 14:16:44;;;;;;;8.23;3.38;;;;;;;;;;4957027;29;20061;-93
2021/08/28 14:19:10;;;;;;;1.73;0.73;;;;;;;;;;4957318;29;20031;-92
2021/08/28 14:21:36;;;;;;;1.95;0.82;;;;;;;;;;4956976;29;20370;-93
2021/08/28 14:24:02;;;;;;;1.90;0.77;;;;;;;;;;4957179;29;20034;-92
2021/08/28 14:26:29;;;;;;;2.28;0.55;;;;;;;;;;4957136;29;20027;-92
2021/08/28 14:28:57;;;;;;;2.67;0.90;;;;;;;;;;4957917;29;20063;-92
2021/08/28 14:31:24;;;;;;;1.50;0.80;;;;;;;;;;4956658;29;20096;-91
2021/08/28 14:33:50;;;;;;;1.17;0.60;;;;;;;;;;4957121;29;20472;-94
2021/08/28 14:36:17;;;;;;;1.88;0.60;;;;;;;;;;4956444;28;20473;-90
2021/08/28 14:38:44;;;;;;;1.02;0.43;;;;;;;;;;4958195;29;20031;-93
2021/08/28 14:41:10;;;;;;;0.88;0.38;;;;;;;;;;4956873;29;20027;-93
2021/08/28 14:43:36;;;;;;;1.95;0.85;;;;;;;;;;4956638;29;20067;-92
2021/08/28 14:46:03;;;;;;;4.93;1.80;;;;;;;;;;4957548;29;20400;-93
2021/08/28 14:48:29;;;;;;;3.72;1.42;;;;;;;;;;4957006;29;20066;-93
2021/08/28 14:50:56;;;;;;;3.65;0.70;;;;;;;;;;4956246;29;20038;-93
2021/08/28 14:53:22;;;;;;;2.53;0.40;;;;;;;;;;4959045;29;20035;-91
2021/08/28 14:55:49;;;;;;;1.30;0.52;;;;;;;;;;4960355;29;20028;-93
2021/08/28 14:58:15;;;;;;;1.05;0.45;;;;;;;;;;4956327;29;20118;-93
2021/08/28 15:00:41;;;;;;;6.88;0.60;;;;;;;;;;4957381;29;20047;-93
2021/08/28 15:03:08;;;;;;;1.58;0.70;;;;;;;;;;4940932;29;20465;-93
2021/08/28 15:05:34;;;;;;;1.30;0.43;;;;;;;;;;4940462;29;20027;-92
2021/08/28 15:08:01;;;;;;;1.30;0.50;;;;;;;;;;4940385;29;20031;-93
2021/08/28 15:10:27;;;;;;;1.42;0.50;;;;;;;;;;4939963;29;20118;-90
2021/08/28 15:12:54;;;;;;;2.75;0.65;;;;;;;;;;4940012;29;20027;-90
2021/08/28 15:15:20;;;;;;;6.22;2.40;;;;;;;;;;4940057;29;20054;-91
2021/08/28 15:17:47;;;;;;;8.20;4.07;;;;;;;;;;4939980;29;20028;-91
2021/08/28 15:20:13;;;;;;;4.30;1.40;;;;;;;;;;4939938;29;20062;-93
2021/08/28 15:22:40;;;;;;;2.20;1.00;;;;;;;;;;4940051;29;20042;-90
2021/08/28 15:25:07;;;;;;;1.58;0.80;;;;;;;;;;4939879;29;20035;-90
2021/08/28 15:27:33;;;;;;;1.73;1.00;;;;;;;;;;4939656;29;20433;-90
2021/08/28 15:30:00;;;;;;;1.85;0.80;;;;;;;;;;4939680;29;20027;-89
2021/08/28 15:32:26;;;;;;;2.45;1.20;;;;;;;;;;4956754;29;20039;-89
2021/08/28 15:34:55;;;;;;;2.15;0.98;;;;;;;;;;4939991;29;20030;-93
2021/08/28 15:37:22;;;;;;;4.50;1.17;;;;;;;;;;4940287;29;20472;-93
2021/08/28 15:39:48;;;;;;;2.22;0.90;;;;;;;;;;4939801;29;20031;-93
2021/08/28 15:42:15;;;;;;;2.75;1.00;;;;;;;;;;4947022;29;20115;-91
2021/08/28 15:44:41;;;;;;;1.75;0.80;;;;;;;;;;4941239;29;20047;-91
2021/08/28 15:47:08;;;;;;;1.50;0.70;;;;;;;;;;4939388;29;20035;-90
2021/08/28 15:49:34;;;;;;;1.80;0.80;;;;;;;;;;4939694;29;20035;-93
2021/08/28 15:52:00;;;;;;;1.48;0.82;;;;;;;;;;4939672;29;20035;-94
2021/08/28 15:54:27;;;;;;;3.03;1.23;;;;;;;;;;4939916;29;20071;-93
2021/08/28 15:56:53;;;;;;;3.55;1.17;;;;;;;;;;4939318;29;20023;-93
2021/08/28 15:59:19;;;;;;;4.85;1.60;;;;;;;;;;4939396;29;20047;-93
2021/08/28 16:01:45;;;;;;;2.72;1.30;;;;;;;;;;4957048;29;20035;-92
2021/08/28 16:04:12;;;;;;;3.10;1.02;;;;;;;;;;4957444;28;20024;-93
2021/08/28 16:06:38;;;;;;;1.55;0.80;;;;;;;;;;4938398;29;20035;-90
2021/08/28 16:09:04;;;;;;;1.48;0.73;;;;;;;;;;4939441;29;20096;-93
2021/08/28 16:11:30;;;;;;;1.70;0.77;;;;;;;;;;4941248;29;20063;-90
2021/08/28 16:13:58;;;;;;;1.30;0.80;;;;;;;;;;4945130;29;20050;-91
2021/08/28 16:16:24;;;;;;;2.35;1.42;;;;;;;;;;4941325;29;20023;-93
2021/08/28 16:18:50;;;;;;;2.35;0.95;;;;;;;;;;4939626;29;20031;-93
2021/08/28 16:21:17;;;;;;;1.40;0.90;;;;;;;;;;4939151;29;20114;-90
2021/08/28 16:23:43;;;;;;;3.25;1.10;;;;;;;;;;4939332;29;20499;-93
2021/08/28 16:26:09;;;;;;;1.85;0.77;;;;;;;;;;4939209;29;20028;-92
2021/08/28 16:28:36;;;;;;;1.58;0.80;;;;;;;;;;4940102;29;20042;-92
2021/08/28 16:31:02;;;;;;;5.60;0.90;;;;;;;;;;4942210;29;20499;-90
2021/08/28 16:33:28;;;;;;;2.38;1.00;;;;;;;;;;4938769;29;20027;-93
2021/08/28 16:35:56;;;;;;;1.80;0.90;;;;;;;;;;4939454;29;20066;-93
2021/08/28 16:38:22;;;;;;;2.55;1.02;;;;;;;;;;4939253;29;20047;-90
2021/08/28 16:40:48;;;;;;;1.70;1.00;;;;;;;;;;4955772;29;20387;-92
2021/08/28 16:43:15;;;;;;;2.58;1.00;;;;;;;;;;4939975;29;20094;-93
2021/08/28 16:45:41;;;;;;;2.03;1.00;;;;;;;;;;4956033;29;20476;-91
2021/08/28 16:48:07;;;;;;;1.67;0.88;;;;;;;;;;4939371;29;20128;-92
2021/08/28 16:50:34;;;;;;;3.92;1.10;;;;;;;;;;4939477;29;20031;-93
2021/08/28 16:53:00;;;;;;;3.67;1.27;;;;;;;;;;4939109;29;20122;-93
2021/08/28 16:55:26;;;;;;;3.92;0.98;;;;;;;;;;4940190;29;20023;-93
2021/08/28 16:57:53;;;;;;;2.28;1.20;;;;;;;;;;4940818;28;20090;-91
2021/08/28 17:00:19;;;;;;;2.60;1.30;;;;;;;;;;4942172;29;20047;-93
2021/08/28 17:02:46;;;;;;;3.05;1.10;;;;;;;;;;4942385;29;20028;-92
2021/08/28 17:05:13;;;;;;;2.20;1.20;;;;;;;;;;4959530;29;20043;-93
2021/08/28 17:07:40;;;;;;;2.17;1.13;;;;;;;;;;4943459;29;20043;-93
2021/08/28 17:10:06;;;;;;;38.20;9.40;;;;;;;;;;4943024;29;20036;-93
2021/08/28 17:12:33;;;;;;;91.32;17.33;;;;;;;;;;4942486;29;20039;-92
2021/08/28 17:14:59;;;;;;;39.53;9.60;;;;;;;;;;4942316;29;20031;-93
2021/08/28 17:17:26;;;;;;;8.52;2.75;;;;;;;;;;4942577;29;20365;-92
2021/08/28 17:19:52;;;;;;;5.20;1.77;;;;;;;;;;4942842;29;20419;-90
2021/08/28 17:22:19;;;;;;;5.82;1.77;;;;;;;;;;4965136;29;20034;-89
2021/08/28 17:24:45;;;;;;;6.00;2.15;;;;;;;;;;4943793;29;20090;-93
2021/08/28 17:27:11;;;;;;;5.93;1.77;;;;;;;;;;4942114;29;20078;-93
2021/08/28 17:29:38;;;;;;;2.83;1.40;;;;;;;;;;4943160;29;20468;-94
2021/08/28 17:32:05;;;;;;;4.38;1.50;;;;;;;;;;4942212;29;20050;-92
2021/08/28 17:34:31;;;;;;;2.80;1.40;;;;;;;;;;4941916;29;20087;-90
2021/08/28 17:36:57;;;;;;;2.33;1.23;;;;;;;;;;4944379;29;20031;-90
2021/08/28 17:39:23;;;;;;;2.20;1.25;;;;;;;;;;4942338;29;20034;-91
2021/08/28 17:41:49;;;;;;;2.47;1.20;;;;;;;;;;4959189;29;20031;-91
2021/08/28 17:44:16;;;;;;;3.85;1.40;;;;;;;;;;4942590;29;20027;-91
2021/08/28 17:46:42;;;;;;;21.27;3.25;;;;;;;;;;4942267;29;20043;-89
2021/08/28 17:49:08;;;;;;;35.90;3.78;;;;;;;;;;4942614;29;20170;-89
2021/08/28 17:51:34;;;;;;;7.55;1.98;;;;;;;;;;4942084;29;20035;-90
2021/08/28 17:54:01;;;;;;;3.70;1.83;;;;;;;;;;4941598;29;20114;-91
2021/08/28 17:56:27;;;;;;;7.03;1.80;;;;;;;;;;4941885;29;20034;-92
2021/08/28 17:58:53;;;;;;;5.30;1.48;;;;;;;;;;4942355;29;20031;-91
2021/08/28 18:01:23;;;;;;;3.47;1.95;;;;;;;;;;4941496;29;20141;-92
2021/08/28 18:03:49;;;;;;;3.45;2.03;;;;;;;;;;4941694;29;20031;-92
2021/08/28 18:06:16;;;;;;;3.33;1.63;;;;;;;;;;4941881;29;20066;-92
2021/08/28 18:08:42;;;;;;;4.18;1.70;;;;;;;;;;4941437;29;20038;-91